sensor_id;sensor_type;location;lat;lon;timestamp;temperature;humidity
22925;DHT22;11628;51.072;3.712;2023-04-15T00:00:09;13.40;99.90
22925;DHT22;11628;51.072;3.712;2023-04-15T00:02:35;13.40;99.90
22925;DHT22;11628;51.072;3.712;2023-04-15T00:05:01;13.30;99.90
22925;DHT22;11628;51.072;3.712;2023-04-15T00:07:27;13.30;99.90
22925;DHT22;11628;51.072;3.712;2023-04-15T00:09:54;13.30;99.90
22925;DHT22;11628;51.072;3.712;2023-04-15T00:12:22;13.30;99.90
22925;DHT22;11628;51.072;3.712;2023-04-15T00:14:48;13.30;99.90
22925;DHT22;11628;51.072;3.712;2023-04-15T00:17:14;13.20;99.90
22925;DHT22;11628;51.072;3.712;2023-04-15T00:19:40;13.20;99.90
22925;DHT22;11628;51.072;3.712;2023-04-15T00:22:06;13.20;99.90
22925;DHT22;11628;51.072;3.712;2023-04-15T00:24:33;13.20;99.90
22925;DHT22;11628;51.072;3.712;2023-04-15T00:26:59;13.10;99.90
22925;DHT22;11628;51.072;3.712;2023-04-15T00:29:25;13.10;99.90
22925;DHT22;11628;51.072;3.712;2023-04-15T00:31:50;13.10;99.90
22925;DHT22;11628;51.072;3.712;2023-04-15T00:34:16;13.00;99.90
22925;DHT22;11628;51.072;3.712;2023-04-15T00:36:43;13.00;99.90
22925;DHT22;11628;51.072;3.712;2023-04-15T00:39:09;13.00;99.90
22925;DHT22;11628;51.072;3.712;2023-04-15T00:41:34;13.00;99.90
22925;DHT22;11628;51.072;3.712;2023-04-15T00:44:05;12.90;99.90
22925;DHT22;11628;51.072;3.712;2023-04-15T00:46:33;12.90;99.90
22925;DHT22;11628;51.072;3.712;2023-04-15T00:49:00;13.00;99.90
22925;DHT22;11628;51.072;3.712;2023-04-15T00:51:27;13.00;99.90
22925;DHT22;11628;51.072;3.712;2023-04-15T00:53:52;13.00;99.90
22925;DHT22;11628;51.072;3.712;2023-04-15T00:56:20;13.00;99.90
22925;DHT22;11628;51.072;3.712;2023-04-15T00:58:50;13.00;99.90
22925;DHT22;11628;51.072;3.712;2023-04-15T01:01:20;13.00;99.90
22925;DHT22;11628;51.072;3.712;2023-04-15T01:03:47;13.00;99.90
22925;DHT22;11628;51.072;3.712;2023-04-15T01:06:14;13.00;99.90
22925;DHT22;11628;51.072;3.712;2023-04-15T01:08:39;12.90;99.90
22925;DHT22;11628;51.072;3.712;2023-04-15T01:11:06;12.90;99.90
22925;DHT22;11628;51.072;3.712;2023-04-15T01:13:32;13.00;99.90
22925;DHT22;11628;51.072;3.712;2023-04-15T01:15:58;12.90;99.90
22925;DHT22;11628;51.072;3.712;2023-04-15T01:18:25;12.80;99.90
22925;DHT22;11628;51.072;3.712;2023-04-15T01:20:52;12.80;99.90
22925;DHT22;11628;51.072;3.712;2023-04-15T01:23:17;12.70;99.90
22925;DHT22;11628;51.072;3.712;2023-04-15T01:25:43;12.70;99.90
22925;DHT22;11628;51.072;3.712;2023-04-15T01:28:10;12.70;99.90
22925;DHT22;11628;51.072;3.712;2023-04-15T01:30:35;12.70;99.90
22925;DHT22;11628;51.072;3.712;2023-04-15T01:33:01;12.70;99.90
22925;DHT22;11628;51.072;3.712;2023-04-15T01:35:27;12.70;99.90
22925;DHT22;11628;51.072;3.712;2023-04-15T01:37:53;12.60;99.90
22925;DHT22;11628;51.072;3.712;2023-04-15T01:40:24;12.60;99.90
22925;DHT22;11628;51.072;3.712;2023-04-15T01:42:50;12.50;99.90
22925;DHT22;11628;51.072;3.712;2023-04-15T01:45:16;12.40;99.90
22925;DHT22;11628;51.072;3.712;2023-04-15T01:47:42;12.40;99.90
22925;DHT22;11628;51.072;3.712;2023-04-15T01:50:08;12.40;99.90
22925;DHT22;11628;51.072;3.712;2023-04-15T01:52:34;12.40;99.90
22925;DHT22;11628;51.072;3.712;2023-04-15T01:55:00;12.40;99.90
22925;DHT22;11628;51.072;3.712;2023-04-15T01:57:26;12.40;99.90
22925;DHT22;11628;51.072;3.712;2023-04-15T01:59:51;12.40;99.90
22925;DHT22;11628;51.072;3.712;2023-04-15T02:02:17;12.40;99.90
22925;DHT22;11628;51.072;3.712;2023-04-15T02:04:43;12.40;99.90
22925;DHT22;11628;51.072;3.712;2023-04-15T02:07:09;12.40;99.90
22925;DHT22;11628;51.072;3.712;2023-04-15T02:09:34;12.50;99.90
22925;DHT22;11628;51.072;3.712;2023-04-15T02:12:00;12.40;99.90
22925;DHT22;11628;51.072;3.712;2023-04-15T02:14:26;12.40;99.90
22925;DHT22;11628;51.072;3.712;2023-04-15T02:16:51;12.40;99.90
22925;DHT22;11628;51.072;3.712;2023-04-15T02:19:17;12.40;99.90
22925;DHT22;11628;51.072;3.712;2023-04-15T02:21:43;12.40;99.90
22925;DHT22;11628;51.072;3.712;2023-04-15T02:24:09;12.40;99.90
22925;DHT22;11628;51.072;3.712;2023-04-15T02:26:36;12.40;99.90
22925;DHT22;11628;51.072;3.712;2023-04-15T02:29:02;12.40;99.90
22925;DHT22;11628;51.072;3.712;2023-04-15T02:31:28;12.50;99.90
22925;DHT22;11628;51.072;3.712;2023-04-15T02:33:53;12.50;99.90
22925;DHT22;11628;51.072;3.712;2023-04-15T02:36:19;12.50;99.90
22925;DHT22;11628;51.072;3.712;2023-04-15T02:38:45;12.50;99.90
22925;DHT22;11628;51.072;3.712;2023-04-15T02:41:11;12.50;99.90
22925;DHT22;11628;51.072;3.712;2023-04-15T02:43:37;12.40;99.90
22925;DHT22;11628;51.072;3.712;2023-04-15T02:46:04;12.40;99.90
22925;DHT22;11628;51.072;3.712;2023-04-15T02:48:30;12.40;99.90
22925;DHT22;11628;51.072;3.712;2023-04-15T02:51:16;12.40;99.90
22925;DHT22;11628;51.072;3.712;2023-04-15T02:53:44;12.30;99.90
22925;DHT22;11628;51.072;3.712;2023-04-15T02:56:10;12.30;99.90
22925;DHT22;11628;51.072;3.712;2023-04-15T02:58:37;12.30;99.90
22925;DHT22;11628;51.072;3.712;2023-04-15T03:01:03;12.30;99.90
22925;DHT22;11628;51.072;3.712;2023-04-15T03:03:29;12.40;99.90
22925;DHT22;11628;51.072;3.712;2023-04-15T03:05:55;12.30;99.90
22925;DHT22;11628;51.072;3.712;2023-04-15T03:08:21;12.30;99.90
22925;DHT22;11628;51.072;3.712;2023-04-15T03:10:48;12.30;99.90
22925;DHT22;11628;51.072;3.712;2023-04-15T03:13:16;12.30;99.90
22925;DHT22;11628;51.072;3.712;2023-04-15T03:15:42;12.30;99.90
22925;DHT22;11628;51.072;3.712;2023-04-15T03:18:08;12.20;99.90
22925;DHT22;11628;51.072;3.712;2023-04-15T03:20:33;12.20;99.90
22925;DHT22;11628;51.072;3.712;2023-04-15T03:23:00;12.20;99.90
22925;DHT22;11628;51.072;3.712;2023-04-15T03:25:26;12.20;99.90
22925;DHT22;11628;51.072;3.712;2023-04-15T03:27:51;12.20;99.90
22925;DHT22;11628;51.072;3.712;2023-04-15T03:30:17;12.20;99.90
22925;DHT22;11628;51.072;3.712;2023-04-15T03:32:43;12.20;99.90
22925;DHT22;11628;51.072;3.712;2023-04-15T03:35:08;12.20;99.90
22925;DHT22;11628;51.072;3.712;2023-04-15T03:37:34;12.20;99.90
22925;DHT22;11628;51.072;3.712;2023-04-15T03:40:00;12.10;99.90
22925;DHT22;11628;51.072;3.712;2023-04-15T03:42:25;12.10;99.90
22925;DHT22;11628;51.072;3.712;2023-04-15T03:44:51;12.00;99.90
22925;DHT22;11628;51.072;3.712;2023-04-15T03:47:17;12.00;99.90
22925;DHT22;11628;51.072;3.712;2023-04-15T03:49:43;12.00;99.90
22925;DHT22;11628;51.072;3.712;2023-04-15T03:52:08;12.10;99.90
22925;DHT22;11628;51.072;3.712;2023-04-15T03:54:34;12.10;99.90
22925;DHT22;11628;51.072;3.712;2023-04-15T03:57:00;12.10;99.90
22925;DHT22;11628;51.072;3.712;2023-04-15T03:59:26;12.00;99.90
22925;DHT22;11628;51.072;3.712;2023-04-15T04:01:51;11.90;99.90
22925;DHT22;11628;51.072;3.712;2023-04-15T04:04:17;11.90;99.90
22925;DHT22;11628;51.072;3.712;2023-04-15T04:06:43;11.80;99.90
22925;DHT22;11628;51.072;3.712;2023-04-15T04:09:08;11.80;99.90
22925;DHT22;11628;51.072;3.712;2023-04-15T04:11:34;11.70;99.90
22925;DHT22;11628;51.072;3.712;2023-04-15T04:14:00;11.70;99.90
22925;DHT22;11628;51.072;3.712;2023-04-15T04:16:25;11.70;99.90
22925;DHT22;11628;51.072;3.712;2023-04-15T04:18:51;11.70;99.90
22925;DHT22;11628;51.072;3.712;2023-04-15T04:21:17;11.70;99.90
22925;DHT22;11628;51.072;3.712;2023-04-15T04:23:43;11.60;99.90
22925;DHT22;11628;51.072;3.712;2023-04-15T04:26:08;11.70;99.90
22925;DHT22;11628;51.072;3.712;2023-04-15T04:28:34;11.70;99.90
22925;DHT22;11628;51.072;3.712;2023-04-15T04:31:01;11.70;99.90
22925;DHT22;11628;51.072;3.712;2023-04-15T04:33:26;11.80;99.90
22925;DHT22;11628;51.072;3.712;2023-04-15T04:35:52;11.80;99.90
22925;DHT22;11628;51.072;3.712;2023-04-15T04:38:18;11.80;99.90
22925;DHT22;11628;51.072;3.712;2023-04-15T04:40:43;11.90;99.90
22925;DHT22;11628;51.072;3.712;2023-04-15T04:43:09;11.90;99.90
22925;DHT22;11628;51.072;3.712;2023-04-15T04:45:35;11.80;99.90
22925;DHT22;11628;51.072;3.712;2023-04-15T04:48:00;11.80;99.90
22925;DHT22;11628;51.072;3.712;2023-04-15T04:50:26;11.80;99.90
22925;DHT22;11628;51.072;3.712;2023-04-15T04:52:52;11.80;99.90
22925;DHT22;11628;51.072;3.712;2023-04-15T04:55:17;11.80;99.90
22925;DHT22;11628;51.072;3.712;2023-04-15T04:57:43;11.80;99.90
22925;DHT22;11628;51.072;3.712;2023-04-15T05:00:09;11.80;99.90
22925;DHT22;11628;51.072;3.712;2023-04-15T05:02:35;11.80;99.90
22925;DHT22;11628;51.072;3.712;2023-04-15T05:05:01;11.80;99.90
22925;DHT22;11628;51.072;3.712;2023-04-15T05:07:27;11.80;99.90
22925;DHT22;11628;51.072;3.712;2023-04-15T05:09:53;11.80;99.90
22925;DHT22;11628;51.072;3.712;2023-04-15T05:12:19;11.70;99.90
22925;DHT22;11628;51.072;3.712;2023-04-15T05:14:45;11.70;99.90
22925;DHT22;11628;51.072;3.712;2023-04-15T05:17:11;11.70;99.90
22925;DHT22;11628;51.072;3.712;2023-04-15T05:19:38;11.70;99.90
22925;DHT22;11628;51.072;3.712;2023-04-15T05:22:04;11.70;99.90
22925;DHT22;11628;51.072;3.712;2023-04-15T05:24:30;11.70;99.90
22925;DHT22;11628;51.072;3.712;2023-04-15T05:26:56;11.70;99.90
22925;DHT22;11628;51.072;3.712;2023-04-15T05:29:22;11.80;99.90
22925;DHT22;11628;51.072;3.712;2023-04-15T05:31:47;12.00;99.90
22925;DHT22;11628;51.072;3.712;2023-04-15T05:34:13;12.10;99.90
22925;DHT22;11628;51.072;3.712;2023-04-15T05:36:41;12.00;99.90
22925;DHT22;11628;51.072;3.712;2023-04-15T05:39:06;12.10;99.90
22925;DHT22;11628;51.072;3.712;2023-04-15T05:41:32;12.10;99.90
22925;DHT22;11628;51.072;3.712;2023-04-15T05:43:59;12.10;99.90
22925;DHT22;11628;51.072;3.712;2023-04-15T05:46:24;12.20;99.90
22925;DHT22;11628;51.072;3.712;2023-04-15T05:48:50;12.20;99.90
22925;DHT22;11628;51.072;3.712;2023-04-15T05:51:16;12.20;99.90
22925;DHT22;11628;51.072;3.712;2023-04-15T05:53:42;12.20;99.90
22925;DHT22;11628;51.072;3.712;2023-04-15T05:56:07;12.20;99.90
22925;DHT22;11628;51.072;3.712;2023-04-15T05:58:33;12.20;99.90
22925;DHT22;11628;51.072;3.712;2023-04-15T06:00:59;12.20;99.90
22925;DHT22;11628;51.072;3.712;2023-04-15T06:03:24;12.20;99.90
22925;DHT22;11628;51.072;3.712;2023-04-15T06:05:50;12.20;99.90
22925;DHT22;11628;51.072;3.712;2023-04-15T06:08:16;12.30;99.90
22925;DHT22;11628;51.072;3.712;2023-04-15T06:10:42;12.30;99.90
22925;DHT22;11628;51.072;3.712;2023-04-15T06:13:08;12.30;99.90
22925;DHT22;11628;51.072;3.712;2023-04-15T06:15:33;12.30;99.90
22925;DHT22;11628;51.072;3.712;2023-04-15T06:17:59;12.50;99.90
22925;DHT22;11628;51.072;3.712;2023-04-15T06:20:25;12.60;99.90
22925;DHT22;11628;51.072;3.712;2023-04-15T06:22:51;12.60;99.90
22925;DHT22;11628;51.072;3.712;2023-04-15T06:25:17;12.80;99.90
22925;DHT22;11628;51.072;3.712;2023-04-15T06:27:42;12.90;99.90
22925;DHT22;11628;51.072;3.712;2023-04-15T06:30:08;13.10;99.90
22925;DHT22;11628;51.072;3.712;2023-04-15T06:32:34;13.30;99.90
22925;DHT22;11628;51.072;3.712;2023-04-15T06:35:00;13.30;99.90
22925;DHT22;11628;51.072;3.712;2023-04-15T06:37:26;13.40;99.90
22925;DHT22;11628;51.072;3.712;2023-04-15T06:39:51;13.50;99.90
22925;DHT22;11628;51.072;3.712;2023-04-15T06:42:17;13.60;99.90
22925;DHT22;11628;51.072;3.712;2023-04-15T06:44:42;13.70;99.90
22925;DHT22;11628;51.072;3.712;2023-04-15T06:47:08;13.80;99.90
22925;DHT22;11628;51.072;3.712;2023-04-15T06:49:34;14.00;99.90
22925;DHT22;11628;51.072;3.712;2023-04-15T06:52:00;14.20;99.90
22925;DHT22;11628;51.072;3.712;2023-04-15T06:54:26;14.30;99.90
22925;DHT22;11628;51.072;3.712;2023-04-15T06:56:51;14.50;99.90
22925;DHT22;11628;51.072;3.712;2023-04-15T06:59:17;14.70;99.90
22925;DHT22;11628;51.072;3.712;2023-04-15T07:01:43;14.90;99.90
22925;DHT22;11628;51.072;3.712;2023-04-15T07:04:09;15.00;99.90
22925;DHT22;11628;51.072;3.712;2023-04-15T07:06:35;15.20;99.90
22925;DHT22;11628;51.072;3.712;2023-04-15T07:09:01;15.40;99.90
22925;DHT22;11628;51.072;3.712;2023-04-15T07:11:27;15.50;99.90
22925;DHT22;11628;51.072;3.712;2023-04-15T07:13:53;15.60;99.90
22925;DHT22;11628;51.072;3.712;2023-04-15T07:16:19;15.80;99.90
22925;DHT22;11628;51.072;3.712;2023-04-15T07:18:45;15.90;99.90
22925;DHT22;11628;51.072;3.712;2023-04-15T07:21:11;15.90;99.90
22925;DHT22;11628;51.072;3.712;2023-04-15T07:23:37;16.10;99.90
22925;DHT22;11628;51.072;3.712;2023-04-15T07:26:03;16.20;99.90
22925;DHT22;11628;51.072;3.712;2023-04-15T07:28:28;16.30;99.90
22925;DHT22;11628;51.072;3.712;2023-04-15T07:30:54;16.30;99.90
22925;DHT22;11628;51.072;3.712;2023-04-15T07:33:21;16.40;99.90
22925;DHT22;11628;51.072;3.712;2023-04-15T07:35:47;16.40;99.90
22925;DHT22;11628;51.072;3.712;2023-04-15T07:38:13;16.50;99.90
22925;DHT22;11628;51.072;3.712;2023-04-15T07:40:39;16.70;99.90
22925;DHT22;11628;51.072;3.712;2023-04-15T07:43:05;16.70;99.90
22925;DHT22;11628;51.072;3.712;2023-04-15T07:45:31;16.80;99.90
22925;DHT22;11628;51.072;3.712;2023-04-15T07:47:57;16.80;99.90
22925;DHT22;11628;51.072;3.712;2023-04-15T07:50:23;16.80;99.90
22925;DHT22;11628;51.072;3.712;2023-04-15T07:52:51;16.80;99.90
22925;DHT22;11628;51.072;3.712;2023-04-15T07:55:18;16.80;99.90
22925;DHT22;11628;51.072;3.712;2023-04-15T07:57:45;16.70;99.90
22925;DHT22;11628;51.072;3.712;2023-04-15T08:00:12;16.80;99.90
22925;DHT22;11628;51.072;3.712;2023-04-15T08:02:38;17.00;99.90
22925;DHT22;11628;51.072;3.712;2023-04-15T08:05:04;17.20;99.90
22925;DHT22;11628;51.072;3.712;2023-04-15T08:07:31;17.60;99.90
22925;DHT22;11628;51.072;3.712;2023-04-15T08:09:57;17.90;99.90
22925;DHT22;11628;51.072;3.712;2023-04-15T08:12:23;18.30;99.90
22925;DHT22;11628;51.072;3.712;2023-04-15T08:14:50;18.80;99.90
22925;DHT22;11628;51.072;3.712;2023-04-15T08:17:16;19.10;99.90
22925;DHT22;11628;51.072;3.712;2023-04-15T08:19:42;19.50;99.90
22925;DHT22;11628;51.072;3.712;2023-04-15T08:22:08;19.80;99.90
22925;DHT22;11628;51.072;3.712;2023-04-15T08:24:34;19.90;99.90
22925;DHT22;11628;51.072;3.712;2023-04-15T08:27:01;20.20;99.90
22925;DHT22;11628;51.072;3.712;2023-04-15T08:29:30;20.60;99.90
22925;DHT22;11628;51.072;3.712;2023-04-15T08:31:56;20.80;99.90
22925;DHT22;11628;51.072;3.712;2023-04-15T08:34:23;20.90;99.90
22925;DHT22;11628;51.072;3.712;2023-04-15T08:36:49;21.20;99.90
22925;DHT22;11628;51.072;3.712;2023-04-15T08:39:16;21.80;99.90
22925;DHT22;11628;51.072;3.712;2023-04-15T08:41:46;22.10;99.90
22925;DHT22;11628;51.072;3.712;2023-04-15T08:44:13;22.00;99.90
22925;DHT22;11628;51.072;3.712;2023-04-15T08:46:40;21.90;99.90
22925;DHT22;11628;51.072;3.712;2023-04-15T08:49:09;21.90;99.90
22925;DHT22;11628;51.072;3.712;2023-04-15T08:51:37;22.00;99.90
22925;DHT22;11628;51.072;3.712;2023-04-15T08:54:04;22.20;99.90
22925;DHT22;11628;51.072;3.712;2023-04-15T08:56:30;22.30;99.90
22925;DHT22;11628;51.072;3.712;2023-04-15T08:58:58;22.30;99.90
22925;DHT22;11628;51.072;3.712;2023-04-15T09:01:25;22.40;99.90
22925;DHT22;11628;51.072;3.712;2023-04-15T09:03:51;22.40;99.90
22925;DHT22;11628;51.072;3.712;2023-04-15T09:06:20;22.50;99.90
22925;DHT22;11628;51.072;3.712;2023-04-15T09:08:46;22.50;99.90
22925;DHT22;11628;51.072;3.712;2023-04-15T09:11:12;22.60;99.90
22925;DHT22;11628;51.072;3.712;2023-04-15T09:13:38;22.70;99.90
22925;DHT22;11628;51.072;3.712;2023-04-15T09:16:05;22.70;99.90
22925;DHT22;11628;51.072;3.712;2023-04-15T09:18:32;22.70;99.90
22925;DHT22;11628;51.072;3.712;2023-04-15T09:21:27;22.80;99.90
22925;DHT22;11628;51.072;3.712;2023-04-15T09:23:58;23.00;99.90
22925;DHT22;11628;51.072;3.712;2023-04-15T09:26:35;22.90;99.90
22925;DHT22;11628;51.072;3.712;2023-04-15T09:29:03;23.10;99.90
22925;DHT22;11628;51.072;3.712;2023-04-15T09:31:31;23.10;99.90
22925;DHT22;11628;51.072;3.712;2023-04-15T09:33:56;23.10;99.90
22925;DHT22;11628;51.072;3.712;2023-04-15T09:36:22;23.20;99.90
22925;DHT22;11628;51.072;3.712;2023-04-15T09:38:57;23.40;99.90
22925;DHT22;11628;51.072;3.712;2023-04-15T09:41:24;23.70;99.90
22925;DHT22;11628;51.072;3.712;2023-04-15T09:43:50;24.00;99.90
22925;DHT22;11628;51.072;3.712;2023-04-15T09:46:16;24.50;99.90
22925;DHT22;11628;51.072;3.712;2023-04-15T09:48:42;25.00;99.90
22925;DHT22;11628;51.072;3.712;2023-04-15T09:51:07;25.30;99.00
22925;DHT22;11628;51.072;3.712;2023-04-15T09:53:35;25.60;98.00
22925;DHT22;11628;51.072;3.712;2023-04-15T09:56:01;25.80;97.70
22925;DHT22;11628;51.072;3.712;2023-04-15T09:58:29;26.10;96.50
22925;DHT22;11628;51.072;3.712;2023-04-15T10:00:57;26.60;96.20
22925;DHT22;11628;51.072;3.712;2023-04-15T10:03:25;27.40;95.50
22925;DHT22;11628;51.072;3.712;2023-04-15T10:05:54;28.30;94.00
22925;DHT22;11628;51.072;3.712;2023-04-15T10:08:23;28.90;93.10
22925;DHT22;11628;51.072;3.712;2023-04-15T10:10:53;29.60;92.50
22925;DHT22;11628;51.072;3.712;2023-04-15T10:13:23;31.50;90.90
22925;DHT22;11628;51.072;3.712;2023-04-15T10:16:00;33.80;83.90
22925;DHT22;11628;51.072;3.712;2023-04-15T10:18:28;36.10;75.10
22925;DHT22;11628;51.072;3.712;2023-04-15T10:20:57;37.90;68.20
22925;DHT22;11628;51.072;3.712;2023-04-15T10:23:25;39.20;60.50
22925;DHT22;11628;51.072;3.712;2023-04-15T10:25:52;40.90;56.80
22925;DHT22;11628;51.072;3.712;2023-04-15T10:28:19;41.50;54.00
22925;DHT22;11628;51.072;3.712;2023-04-15T10:30:47;41.70;50.60
22925;DHT22;11628;51.072;3.712;2023-04-15T10:33:16;42.00;50.10
22925;DHT22;11628;51.072;3.712;2023-04-15T10:35:44;42.30;48.40
22925;DHT22;11628;51.072;3.712;2023-04-15T10:43:46;41.70;47.50
22925;DHT22;11628;51.072;3.712;2023-04-15T10:46:23;41.00;47.10
22925;DHT22;11628;51.072;3.712;2023-04-15T10:49:16;40.20;47.20
22925;DHT22;11628;51.072;3.712;2023-04-15T10:51:50;39.90;46.90
22925;DHT22;11628;51.072;3.712;2023-04-15T10:54:32;39.20;47.00
22925;DHT22;11628;51.072;3.712;2023-04-15T11:00:09;39.90;45.20
22925;DHT22;11628;51.072;3.712;2023-04-15T11:05:15;41.10;43.00
22925;DHT22;11628;51.072;3.712;2023-04-15T11:07:49;41.30;42.80
22925;DHT22;11628;51.072;3.712;2023-04-15T11:12:58;41.60;41.10
22925;DHT22;11628;51.072;3.712;2023-04-15T11:18:20;41.30;41.10
22925;DHT22;11628;51.072;3.712;2023-04-15T11:20:51;41.20;40.20
22925;DHT22;11628;51.072;3.712;2023-04-15T11:23:26;41.40;39.70
22925;DHT22;11628;51.072;3.712;2023-04-15T11:25:54;41.60;40.80
22925;DHT22;11628;51.072;3.712;2023-04-15T11:28:24;42.20;40.60
22925;DHT22;11628;51.072;3.712;2023-04-15T11:30:50;43.00;37.80
22925;DHT22;11628;51.072;3.712;2023-04-15T11:33:16;43.50;38.00
22925;DHT22;11628;51.072;3.712;2023-04-15T11:35:42;43.80;39.20
22925;DHT22;11628;51.072;3.712;2023-04-15T11:38:11;43.60;38.60
22925;DHT22;11628;51.072;3.712;2023-04-15T11:40:37;43.10;37.50
22925;DHT22;11628;51.072;3.712;2023-04-15T11:43:23;42.90;37.90
22925;DHT22;11628;51.072;3.712;2023-04-15T11:45:54;42.40;39.10
22925;DHT22;11628;51.072;3.712;2023-04-15T11:48:25;41.50;38.80
22925;DHT22;11628;51.072;3.712;2023-04-15T11:50:53;41.40;38.40
22925;DHT22;11628;51.072;3.712;2023-04-15T11:53:19;41.60;38.60
22925;DHT22;11628;51.072;3.712;2023-04-15T11:55:47;42.20;38.20
22925;DHT22;11628;51.072;3.712;2023-04-15T11:58:18;42.00;38.00
22925;DHT22;11628;51.072;3.712;2023-04-15T12:00:56;41.60;37.90
22925;DHT22;11628;51.072;3.712;2023-04-15T12:03:39;41.40;38.20
22925;DHT22;11628;51.072;3.712;2023-04-15T12:06:13;41.60;38.60
22925;DHT22;11628;51.072;3.712;2023-04-15T12:11:55;42.20;38.50
22925;DHT22;11628;51.072;3.712;2023-04-15T12:14:25;42.50;38.80
22925;DHT22;11628;51.072;3.712;2023-04-15T12:16:54;42.40;37.40
22925;DHT22;11628;51.072;3.712;2023-04-15T12:19:25;42.50;36.40
22925;DHT22;11628;51.072;3.712;2023-04-15T12:21:57;42.30;38.10
22925;DHT22;11628;51.072;3.712;2023-04-15T12:24:24;42.10;37.10
22925;DHT22;11628;51.072;3.712;2023-04-15T12:26:57;41.30;38.00
22925;DHT22;11628;51.072;3.712;2023-04-15T12:29:27;40.50;37.90
22925;DHT22;11628;51.072;3.712;2023-04-15T12:32:10;41.20;37.40
22925;DHT22;11628;51.072;3.712;2023-04-15T12:34:40;41.60;37.40
22925;DHT22;11628;51.072;3.712;2023-04-15T12:37:07;41.90;37.70
22925;DHT22;11628;51.072;3.712;2023-04-15T12:39:39;42.00;37.70
22925;DHT22;11628;51.072;3.712;2023-04-15T12:42:05;42.50;37.10
22925;DHT22;11628;51.072;3.712;2023-04-15T12:44:32;42.70;37.40
22925;DHT22;11628;51.072;3.712;2023-04-15T12:46:58;42.20;36.10
22925;DHT22;11628;51.072;3.712;2023-04-15T12:49:24;41.30;37.40
22925;DHT22;11628;51.072;3.712;2023-04-15T12:51:53;41.30;37.00
22925;DHT22;11628;51.072;3.712;2023-04-15T12:54:19;41.80;37.40
22925;DHT22;11628;51.072;3.712;2023-04-15T12:56:46;41.90;37.00
22925;DHT22;11628;51.072;3.712;2023-04-15T12:59:13;41.70;37.60
22925;DHT22;11628;51.072;3.712;2023-04-15T13:01:39;42.00;37.20
22925;DHT22;11628;51.072;3.712;2023-04-15T13:04:06;41.70;37.10
22925;DHT22;11628;51.072;3.712;2023-04-15T13:06:32;41.50;36.40
22925;DHT22;11628;51.072;3.712;2023-04-15T13:09:01;41.40;36.30
22925;DHT22;11628;51.072;3.712;2023-04-15T13:11:29;41.30;36.50
22925;DHT22;11628;51.072;3.712;2023-04-15T13:14:02;41.20;36.40
22925;DHT22;11628;51.072;3.712;2023-04-15T13:16:28;40.60;37.30
22925;DHT22;11628;51.072;3.712;2023-04-15T13:18:54;40.30;36.80
22925;DHT22;11628;51.072;3.712;2023-04-15T13:21:20;40.20;37.70
22925;DHT22;11628;51.072;3.712;2023-04-15T13:23:47;39.20;38.10
22925;DHT22;11628;51.072;3.712;2023-04-15T13:26:13;38.50;39.40
22925;DHT22;11628;51.072;3.712;2023-04-15T13:28:38;38.20;39.00
22925;DHT22;11628;51.072;3.712;2023-04-15T13:31:04;38.60;37.60
22925;DHT22;11628;51.072;3.712;2023-04-15T13:33:30;39.20;37.10
22925;DHT22;11628;51.072;3.712;2023-04-15T13:35:56;39.60;37.50
22925;DHT22;11628;51.072;3.712;2023-04-15T13:38:23;39.30;37.70
22925;DHT22;11628;51.072;3.712;2023-04-15T13:40:49;39.00;38.80
22925;DHT22;11628;51.072;3.712;2023-04-15T13:43:15;38.90;40.40
22925;DHT22;11628;51.072;3.712;2023-04-15T13:45:42;39.10;41.50
22925;DHT22;11628;51.072;3.712;2023-04-15T13:48:08;39.30;41.80
22925;DHT22;11628;51.072;3.712;2023-04-15T13:50:34;39.70;41.80
22925;DHT22;11628;51.072;3.712;2023-04-15T13:52:59;39.90;41.50
22925;DHT22;11628;51.072;3.712;2023-04-15T13:55:25;39.90;41.40
22925;DHT22;11628;51.072;3.712;2023-04-15T13:57:51;39.50;41.30
22925;DHT22;11628;51.072;3.712;2023-04-15T14:00:17;38.90;42.40
22925;DHT22;11628;51.072;3.712;2023-04-15T14:02:43;38.30;42.80
22925;DHT22;11628;51.072;3.712;2023-04-15T14:05:09;38.40;43.40
22925;DHT22;11628;51.072;3.712;2023-04-15T14:07:35;38.90;43.10
22925;DHT22;11628;51.072;3.712;2023-04-15T14:10:01;39.20;42.50
22925;DHT22;11628;51.072;3.712;2023-04-15T14:12:27;39.00;42.20
22925;DHT22;11628;51.072;3.712;2023-04-15T14:14:52;38.80;42.50
22925;DHT22;11628;51.072;3.712;2023-04-15T14:17:18;38.50;43.30
22925;DHT22;11628;51.072;3.712;2023-04-15T14:19:44;38.20;44.10
22925;DHT22;11628;51.072;3.712;2023-04-15T14:22:10;37.90;44.20
22925;DHT22;11628;51.072;3.712;2023-04-15T14:24:36;37.70;44.40
22925;DHT22;11628;51.072;3.712;2023-04-15T14:27:02;37.80;44.00
22925;DHT22;11628;51.072;3.712;2023-04-15T14:29:28;37.60;43.70
22925;DHT22;11628;51.072;3.712;2023-04-15T14:31:53;37.40;43.90
22925;DHT22;11628;51.072;3.712;2023-04-15T14:34:21;37.20;44.30
22925;DHT22;11628;51.072;3.712;2023-04-15T14:36:50;36.90;44.30
22925;DHT22;11628;51.072;3.712;2023-04-15T14:39:16;36.50;44.60
22925;DHT22;11628;51.072;3.712;2023-04-15T14:41:42;36.30;44.80
22925;DHT22;11628;51.072;3.712;2023-04-15T14:44:08;36.20;44.70
22925;DHT22;11628;51.072;3.712;2023-04-15T14:46:36;35.90;44.50
22925;DHT22;11628;51.072;3.712;2023-04-15T14:49:02;35.60;44.70
22925;DHT22;11628;51.072;3.712;2023-04-15T14:51:27;35.30;44.80
22925;DHT22;11628;51.072;3.712;2023-04-15T14:53:53;34.90;45.10
22925;DHT22;11628;51.072;3.712;2023-04-15T14:56:19;34.40;45.70
22925;DHT22;11628;51.072;3.712;2023-04-15T14:58:44;34.10;46.80
22925;DHT22;11628;51.072;3.712;2023-04-15T15:01:10;34.00;46.80
22925;DHT22;11628;51.072;3.712;2023-04-15T15:03:36;33.90;47.10
22925;DHT22;11628;51.072;3.712;2023-04-15T15:06:03;33.80;46.00
22925;DHT22;11628;51.072;3.712;2023-04-15T15:08:28;33.60;46.00
22925;DHT22;11628;51.072;3.712;2023-04-15T15:10:54;33.30;45.60
22925;DHT22;11628;51.072;3.712;2023-04-15T15:13:20;33.20;46.20
22925;DHT22;11628;51.072;3.712;2023-04-15T15:25:52;32.00;43.90
22925;DHT22;11628;51.072;3.712;2023-04-15T15:28:17;31.50;44.20
22925;DHT22;11628;51.072;3.712;2023-04-15T15:30:43;31.40;45.20
22925;DHT22;11628;51.072;3.712;2023-04-15T15:33:09;31.20;45.00
22925;DHT22;11628;51.072;3.712;2023-04-15T15:35:34;31.10;45.60
22925;DHT22;11628;51.072;3.712;2023-04-15T15:38:00;31.00;46.20
22925;DHT22;11628;51.072;3.712;2023-04-15T15:40:26;30.80;47.10
22925;DHT22;11628;51.072;3.712;2023-04-15T15:42:52;30.50;47.30
22925;DHT22;11628;51.072;3.712;2023-04-15T15:45:18;30.20;48.00
22925;DHT22;11628;51.072;3.712;2023-04-15T15:47:43;29.90;48.60
22925;DHT22;11628;51.072;3.712;2023-04-15T15:50:11;29.70;48.50
22925;DHT22;11628;51.072;3.712;2023-04-15T15:52:37;29.60;48.50
22925;DHT22;11628;51.072;3.712;2023-04-15T15:55:03;29.50;48.00
22925;DHT22;11628;51.072;3.712;2023-04-15T15:57:29;29.40;47.60